Time;durP1;ratioP1;P1;durP2;ratioP2;P2;SDS_P1;SDS_P2;PMS_P1;PMS_P2;Temp;Humidity;BMP_temperature;BMP_pressure;BME280_temperature;BME280_humidity;BME280_pressure;Samples;Min_cycle;Max_cycle;Signal;HPM_P1;HPM_P2
2022/10/05 00:00:28;;;;;;;5.20;4.60;;;17.30;99.90;;;;;;5065823;28;20191;-32
2022/10/05 00:02:58;;;;;;;5.97;4.40;;;17.30;99.90;;;;;;5065969;28;20203;-32
2022/10/05 00:05:29;;;;;;;7.00;4.47;;;17.30;99.90;;;;;;5067310;28;20737;-32
2022/10/05 00:08:09;;;;;;;5.60;4.13;;;17.30;99.90;;;;;;5067161;28;20226;-32
2022/10/05 00:10:42;;;;;;;4.50;3.93;;;17.30;99.90;;;;;;5066707;28;20703;-32
2022/10/05 00:13:14;;;;;;;5.40;4.47;;;17.30;99.90;;;;;;5066295;28;20298;-32
2022/10/05 00:15:43;;;;;;;5.50;4.13;;;17.30;99.90;;;;;;5066806;28;20234;-31
2022/10/05 00:18:21;;;;;;;7.93;4.50;;;17.30;99.90;;;;;;5066905;28;20246;-32
2022/10/05 00:20:48;;;;;;;5.93;4.43;;;17.30;99.90;;;;;;5067115;28;20193;-32
2022/10/05 00:23:29;;;;;;;5.77;4.83;;;17.30;99.90;;;;;;5067624;28;20243;-32
2022/10/05 00:26:21;;;;;;;5.13;4.63;;;17.30;99.90;;;;;;5066404;28;20203;-32
2022/10/05 00:28:49;;;;;;;5.30;4.60;;;17.30;99.90;;;;;;5068417;28;20214;-31
2022/10/05 00:31:21;;;;;;;5.80;5.10;;;17.30;99.90;;;;;;5067029;28;20231;-32
2022/10/05 00:33:48;;;;;;;6.17;4.90;;;17.30;99.90;;;;;;5065524;28;20760;-32
2022/10/05 00:36:16;;;;;;;10.30;4.97;;;17.30;99.90;;;;;;5065325;28;20207;-31
2022/10/05 00:38:44;;;;;;;5.80;4.83;;;17.30;99.90;;;;;;5066721;28;20224;-32
2022/10/05 00:41:23;;;;;;;6.30;4.87;;;17.30;99.90;;;;;;5066723;28;20219;-32
2022/10/05 00:44:03;;;;;;;6.90;4.87;;;17.30;99.90;;;;;;5066323;28;20195;-32
2022/10/05 00:47:15;;;;;;;6.33;5.00;;;17.30;99.90;;;;;;5066873;28;20546;-32
2022/10/05 00:50:05;;;;;;;9.20;5.20;;;17.30;99.90;;;;;;5065411;28;20215;-31
2022/10/05 00:52:47;;;;;;;6.20;4.83;;;17.30;99.90;;;;;;5066678;28;20195;-32
2022/10/05 00:55:25;;;;;;;7.77;5.87;;;17.20;99.90;;;;;;5069120;28;20223;-32
2022/10/05 00:58:25;;;;;;;6.20;4.77;;;17.20;99.90;;;;;;5067591;28;20701;-32
2022/10/05 01:01:27;;;;;;;6.00;5.30;;;17.20;99.90;;;;;;5050127;28;20203;-32
2022/10/05 01:04:17;;;;;;;7.33;5.23;;;17.20;99.90;;;;;;5047456;28;20215;-32
2022/10/05 01:06:47;;;;;;;7.83;5.07;;;17.20;99.90;;;;;;5050165;28;20568;-32
2022/10/05 01:09:35;;;;;;;6.37;5.33;;;17.20;99.90;;;;;;5049912;28;20269;-32
2022/10/05 01:12:20;;;;;;;7.27;5.03;;;17.20;99.90;;;;;;5049733;28;20208;-32
2022/10/05 01:15:23;;;;;;;7.87;4.90;;;17.20;99.90;;;;;;5049221;28;20587;-32
2022/10/05 01:17:50;;;;;;;7.93;5.17;;;17.20;99.90;;;;;;5049575;28;20729;-32
2022/10/05 01:20:39;;;;;;;7.30;5.23;;;17.20;99.90;;;;;;5049930;28;20758;-32
2022/10/05 01:23:24;;;;;;;6.80;5.37;;;17.20;99.90;;;;;;5050197;28;20200;-32
2022/10/05 01:26:15;;;;;;;7.83;5.57;;;17.20;99.90;;;;;;5049246;28;20192;-32
2022/10/05 01:29:19;;;;;;;6.90;4.70;;;17.10;99.90;;;;;;5048910;28;20204;-32
2022/10/05 01:31:51;;;;;;;7.03;5.40;;;17.10;99.90;;;;;;5049056;28;20208;-32
2022/10/05 01:34:33;;;;;;;6.63;5.03;;;17.10;99.90;;;;;;5049465;28;20303;-32
2022/10/05 01:37:23;;;;;;;7.10;5.57;;;17.10;99.90;;;;;;5049927;28;20867;-32
2022/10/05 01:40:07;;;;;;;8.27;5.50;;;17.10;99.90;;;;;;5049809;28;20230;-32
2022/10/05 01:42:49;;;;;;;6.30;5.23;;;17.10;99.90;;;;;;5048641;28;20211;-32
2022/10/05 01:45:26;;;;;;;8.70;5.10;;;17.00;99.90;;;;;;5049405;28;20688;-32
2022/10/05 01:48:32;;;;;;;7.33;5.27;;;17.00;99.90;;;;;;5049505;28;20210;-32
2022/10/05 01:51:24;;;;;;;6.90;5.17;;;17.00;99.90;;;;;;5048168;28;20219;-32
2022/10/05 01:53:54;;;;;;;7.33;5.60;;;16.90;99.90;;;;;;5049316;28;20200;-32
2022/10/05 01:56:43;;;;;;;9.03;5.83;;;16.90;99.90;;;;;;5048899;28;20192;-31
2022/10/05 01:59:28;;;;;;;5.70;5.10;;;16.90;99.90;;;;;;5047734;28;20208;-32
2022/10/05 02:01:55;;;;;;;6.77;5.73;;;16.80;99.90;;;;;;5049327;28;20196;-32
2022/10/05 02:04:28;;;;;;;7.70;5.90;;;16.80;99.90;;;;;;5049125;28;20210;-32
2022/10/05 02:07:41;;;;;;;7.47;5.17;;;16.80;99.90;;;;;;5048571;28;20315;-32
2022/10/05 02:10:19;;;;;;;6.50;5.30;;;16.70;99.90;;;;;;5049430;28;20208;-32
2022/10/05 02:12:52;;;;;;;6.47;5.50;;;16.70;99.90;;;;;;5048842;28;20630;-32
2022/10/05 02:15:26;;;;;;;9.63;5.53;;;16.60;99.90;;;;;;5048713;28;20316;-32
2022/10/05 02:18:00;;;;;;;9.33;6.30;;;16.60;99.90;;;;;;5048913;28;20240;-30
2022/10/05 02:20:31;;;;;;;6.67;5.57;;;16.60;99.90;;;;;;5048647;28;20238;-32
2022/10/05 02:23:04;;;;;;;7.77;5.53;;;16.60;99.90;;;;;;5049144;28;20777;-31
2022/10/05 02:25:38;;;;;;;10.17;5.87;;;16.50;99.90;;;;;;5046847;28;20240;-31
2022/10/05 02:28:22;;;;;;;7.20;5.27;;;16.50;99.90;;;;;;5048379;28;20185;-32
2022/10/05 02:30:57;;;;;;;7.40;5.63;;;16.50;99.90;;;;;;5048952;28;20204;-32
2022/10/05 02:33:30;;;;;;;6.77;5.43;;;16.40;99.90;;;;;;5048685;28;20208;-31
2022/10/05 02:36:14;;;;;;;9.17;6.23;;;16.40;99.90;;;;;;5048542;28;20227;-32
2022/10/05 02:39:09;;;;;;;8.93;6.23;;;16.40;99.90;;;;;;5047001;28;20269;-31
2022/10/05 02:41:44;;;;;;;9.07;6.07;;;16.30;99.90;;;;;;5047969;28;20639;-31
2022/10/05 02:44:23;;;;;;;7.93;5.73;;;16.30;99.90;;;;;;5048283;28;20200;-32
2022/10/05 02:46:58;;;;;;;7.77;5.17;;;16.30;99.90;;;;;;5047070;28;20299;-31
2022/10/05 02:49:33;;;;;;;6.97;5.13;;;16.20;99.90;;;;;;5048641;28;20202;-32
2022/10/05 02:52:28;;;;;;;10.10;6.37;;;16.20;99.90;;;;;;5048326;28;20299;-32
2022/10/05 02:55:08;;;;;;;6.60;5.20;;;16.20;99.90;;;;;;5048328;28;20215;-32
2022/10/05 02:57:41;;;;;;;10.00;6.07;;;16.10;99.90;;;;;;5047234;28;20291;-32
2022/10/05 03:00:15;;;;;;;7.17;5.17;;;16.10;99.90;;;;;;5048109;28;20235;-31
2022/10/05 03:02:48;;;;;;;7.10;5.47;;;16.10;99.90;;;;;;5048187;28;20298;-32
2022/10/05 03:05:24;;;;;;;7.93;5.30;;;16.10;99.90;;;;;;5047916;28;20192;-32
2022/10/05 03:08:04;;;;;;;7.47;5.20;;;16.10;99.90;;;;;;5048671;28;20223;-32
2022/10/05 03:10:43;;;;;;;7.43;5.67;;;16.10;99.90;;;;;;5048147;28;20565;-31
2022/10/05 03:13:19;;;;;;;7.57;5.63;;;16.10;99.90;;;;;;5047566;28;20231;-32
2022/10/05 03:16:17;;;;;;;7.70;5.53;;;16.10;99.90;;;;;;5047809;28;20570;-32
2022/10/05 03:19:09;;;;;;;7.83;5.20;;;16.10;99.90;;;;;;5045707;28;20769;-32
2022/10/05 03:22:00;;;;;;;9.93;5.20;;;16.10;99.90;;;;;;5048013;28;20232;-32
2022/10/05 03:24:58;;;;;;;6.63;4.90;;;16.10;99.90;;;;;;5047851;28;20302;-32
2022/10/05 03:27:46;;;;;;;6.57;4.80;;;16.10;99.90;;;;;;5047222;28;20634;-31
2022/10/05 03:30:18;;;;;;;5.70;5.03;;;16.10;99.90;;;;;;5047624;28;20240;-32
2022/10/05 03:33:06;;;;;;;6.10;4.90;;;16.10;99.90;;;;;;5048210;28;20847;-32
2022/10/05 03:35:55;;;;;;;7.03;5.37;;;16.10;99.90;;;;;;5046225;28;20619;-32
2022/10/05 03:38:48;;;;;;;6.00;4.97;;;16.10;99.90;;;;;;5047372;28;20280;-31
2022/10/05 03:41:18;;;;;;;4.80;4.30;;;16.10;99.90;;;;;;5045963;28;20216;-32
2022/10/05 03:44:07;;;;;;;6.50;4.70;;;16.20;99.90;;;;;;5047047;28;20256;-32
2022/10/05 03:47:18;;;;;;;6.50;4.90;;;16.20;99.90;;;;;;5047555;28;20623;-32
2022/10/05 03:50:05;;;;;;;4.83;4.30;;;16.20;99.90;;;;;;5047243;28;20196;-32
2022/10/05 03:52:40;;;;;;;5.77;4.30;;;16.20;99.90;;;;;;5047347;28;20216;-31
2022/10/05 03:55:22;;;;;;;5.30;4.33;;;16.20;99.90;;;;;;5047348;28;20430;-32
2022/10/05 03:57:51;;;;;;;4.87;4.00;;;16.20;99.90;;;;;;5045651;28;20204;-32
2022/10/05 04:00:25;;;;;;;6.63;4.07;;;16.20;99.90;;;;;;5047083;28;20228;-32
2022/10/05 04:03:06;;;;;;;6.40;4.30;;;16.30;99.90;;;;;;5047434;28;20292;-32
2022/10/05 04:05:43;;;;;;;4.70;4.00;;;16.30;99.90;;;;;;5047160;28;20203;-30
2022/10/05 04:08:34;;;;;;;4.60;3.80;;;16.30;99.90;;;;;;5062369;28;20663;-31
2022/10/05 04:11:09;;;;;;;5.17;4.13;;;16.30;99.90;;;;;;5046777;28;20682;-32
2022/10/05 04:13:49;;;;;;;5.90;4.10;;;16.30;99.90;;;;;;5046754;28;20291;-32
2022/10/05 04:16:29;;;;;;;5.73;3.90;;;16.30;99.90;;;;;;5047442;28;20202;-32
2022/10/05 04:19:18;;;;;;;5.17;3.67;;;16.40;99.90;;;;;;5046351;28;20247;-32
2022/10/05 04:21:56;;;;;;;6.67;3.87;;;16.40;99.90;;;;;;5045817;28;20239;-32
2022/10/05 04:24:33;;;;;;;5.93;4.10;;;16.40;99.90;;;;;;5046846;28;20243;-32
2022/10/05 04:27:15;;;;;;;6.83;3.73;;;16.40;99.90;;;;;;5046718;28;20269;-32
2022/10/05 04:30:07;;;;;;;4.37;3.80;;;16.40;99.90;;;;;;5048474;28;20710;-32
2022/10/05 04:32:56;;;;;;;5.53;3.93;;;16.40;99.90;;;;;;5050935;28;20204;-32
2022/10/05 04:35:55;;;;;;;7.40;3.87;;;16.40;99.90;;;;;;5050738;28;20219;-32
2022/10/05 04:38:46;;;;;;;4.37;3.43;;;16.50;99.90;;;;;;5051016;28;20261;-32
2022/10/05 04:41:32;;;;;;;4.23;3.40;;;16.50;99.90;;;;;;5050387;28;20246;-32
2022/10/05 04:44:05;;;;;;;4.43;3.40;;;16.50;99.90;;;;;;5050246;28;20208;-31
2022/10/05 04:47:26;;;;;;;5.57;3.60;;;16.50;99.90;;;;;;5050449;28;20232;-32
2022/10/05 04:49:56;;;;;;;4.73;3.37;;;16.50;99.90;;;;;;5047961;28;20295;-31
2022/10/05 04:52:45;;;;;;;4.33;3.37;;;16.60;99.90;;;;;;5049890;28;20210;-32
2022/10/05 04:55:44;;;;;;;3.80;3.20;;;16.50;99.90;;;;;;5050668;28;20196;-32
2022/10/05 04:58:41;;;;;;;4.53;3.07;;;16.60;99.90;;;;;;5050059;28;20303;-32
2022/10/05 05:01:40;;;;;;;3.93;3.50;;;16.60;99.90;;;;;;5052585;28;20207;-31
2022/10/05 05:04:31;;;;;;;3.80;3.27;;;16.60;99.90;;;;;;5059871;28;20666;-32
2022/10/05 05:07:26;;;;;;;4.93;3.30;;;16.60;99.90;;;;;;5065296;28;20666;-31
2022/10/05 05:10:06;;;;;;;3.23;2.87;;;16.60;99.90;;;;;;5064425;28;20208;-31
2022/10/05 05:13:01;;;;;;;4.27;2.87;;;16.60;99.90;;;;;;5078702;28;20211;-32
2022/10/05 05:16:07;;;;;;;4.60;3.17;;;16.60;99.90;;;;;;5062957;28;20501;-31
2022/10/05 05:18:50;;;;;;;3.73;3.10;;;16.60;99.90;;;;;;5072858;28;20230;-31
2022/10/05 05:21:48;;;;;;;5.27;3.03;;;16.60;99.90;;;;;;5067738;28;20219;-31
2022/10/05 05:24:34;;;;;;;6.00;2.73;;;16.60;99.90;;;;;;5059927;28;20210;-32
2022/10/05 05:27:01;;;;;;;4.97;2.80;;;16.60;99.90;;;;;;5068969;28;20226;-32
2022/10/05 05:29:47;;;;;;;3.67;2.87;;;16.70;99.90;;;;;;5067662;28;20200;-31
2022/10/05 05:32:26;;;;;;;3.93;3.10;;;16.70;99.90;;;;;;5066015;28;20314;-32
2022/10/05 05:35:26;;;;;;;3.10;2.60;;;16.70;99.90;;;;;;5066688;28;20204;-32
2022/10/05 05:38:14;;;;;;;4.07;2.67;;;16.70;99.90;;;;;;5049959;28;20205;-32
2022/10/05 05:41:16;;;;;;;2.83;2.50;;;16.70;99.90;;;;;;5049023;28;20646;-31
2022/10/05 05:44:16;;;;;;;4.73;3.00;;;16.70;99.90;;;;;;5048614;28;20204;-32
2022/10/05 05:47:07;;;;;;;6.07;3.63;;;16.70;99.90;;;;;;5049023;28;20209;-31
2022/10/05 05:49:49;;;;;;;5.73;3.00;;;16.70;99.90;;;;;;5049207;28;20208;-31
2022/10/05 05:52:19;;;;;;;3.53;2.83;;;16.70;99.90;;;;;;5049243;28;20206;-32
2022/10/05 05:55:00;;;;;;;6.47;2.70;;;16.70;99.90;;;;;;5048969;28;20211;-32
2022/10/05 05:57:36;;;;;;;4.73;2.90;;;16.80;99.90;;;;;;5049165;28;20643;-32
2022/10/05 06:00:19;;;;;;;4.00;2.80;;;16.80;99.90;;;;;;5063247;28;20219;-31
2022/10/05 06:02:53;;;;;;;9.57;3.33;;;16.80;99.90;;;;;;5065037;28;20199;-31
2022/10/05 06:05:20;;;;;;;7.67;3.10;;;16.80;99.90;;;;;;5065210;28;20199;-32
2022/10/05 06:07:51;;;;;;;3.33;2.33;;;16.80;99.90;;;;;;5069274;28;20217;-32
2022/10/05 06:10:40;;;;;;;3.60;2.40;;;16.80;99.90;;;;;;5066709;28;20231;-32
2022/10/05 06:13:37;;;;;;;6.67;2.57;;;16.90;99.90;;;;;;5062593;28;20406;-32
2022/10/05 06:16:22;;;;;;;4.40;2.60;;;16.90;99.90;;;;;;5064102;28;20723;-32
2022/10/05 06:19:04;;;;;;;7.47;3.23;;;16.90;99.90;;;;;;5067796;28;20243;-32
2022/10/05 06:21:50;;;;;;;10.23;3.23;;;16.90;99.90;;;;;;5065851;28;20231;-31
2022/10/05 06:24:22;;;;;;;5.87;3.30;;;17.00;99.90;;;;;;5066135;28;20684;-32
2022/10/05 06:27:15;;;;;;;6.47;2.70;;;16.90;99.90;;;;;;5067211;28;20199;-32
2022/10/05 06:30:08;;;;;;;3.30;2.37;;;17.00;99.90;;;;;;5065704;28;20381;-32
2022/10/05 06:32:48;;;;;;;9.83;2.70;;;17.00;99.90;;;;;;5056335;28;20315;-31
2022/10/05 06:35:15;;;;;;;7.60;2.27;;;17.00;99.90;;;;;;5060760;28;20204;-31
2022/10/05 06:37:57;;;;;;;6.37;2.73;;;17.00;99.90;;;;;;5067294;28;20281;-32
2022/10/05 06:40:30;;;;;;;6.13;2.50;;;17.00;99.90;;;;;;5067235;28;20219;-31
2022/10/05 06:43:09;;;;;;;4.50;2.47;;;17.10;99.90;;;;;;5062421;28;20284;-32
2022/10/05 06:45:54;;;;;;;5.23;2.37;;;17.10;99.90;;;;;;5065530;28;20202;-32
2022/10/05 06:49:03;;;;;;;4.70;2.30;;;17.10;99.90;;;;;;5066780;28;20212;-32
2022/10/05 06:51:36;;;;;;;5.13;2.27;;;17.20;99.90;;;;;;5064294;28;20746;-31
2022/10/05 06:54:04;;;;;;;4.03;2.00;;;17.20;99.90;;;;;;5065336;28;20756;-32
2022/10/05 06:56:46;;;;;;;4.13;2.20;;;17.20;99.90;;;;;;5063033;28;20302;-31
2022/10/05 06:59:29;;;;;;;6.87;2.67;;;17.20;99.90;;;;;;5080494;28;20254;-32
2022/10/05 07:02:29;;;;;;;6.23;2.90;;;17.20;99.90;;;;;;5066836;28;20200;-31
2022/10/05 07:05:37;;;;;;;5.70;2.33;;;17.30;99.90;;;;;;5067295;28;20204;-32
2022/10/05 07:08:12;;;;;;;3.90;2.20;;;17.30;99.90;;;;;;5067923;28;20251;-32
2022/10/05 07:11:06;;;;;;;3.43;2.00;;;17.40;99.90;;;;;;5066655;28;20286;-31
2022/10/05 07:13:39;;;;;;;4.33;2.00;;;17.40;99.90;;;;;;5065798;28;20960;-31
2022/10/05 07:16:18;;;;;;;9.43;2.10;;;17.50;99.90;;;;;;5065583;28;20207;-32
2022/10/05 07:19:17;;;;;;;5.90;2.13;;;17.50;99.90;;;;;;5066104;28;20756;-32
2022/10/05 07:21:53;;;;;;;3.83;2.47;;;17.50;99.90;;;;;;5067556;28;20729;-31
2022/10/05 07:24:44;;;;;;;4.77;2.00;;;17.60;99.90;;;;;;5066514;28;20211;-32
2022/10/05 07:27:24;;;;;;;4.87;2.37;;;17.60;99.90;;;;;;5058087;28;20298;-32
2022/10/05 07:30:07;;;;;;;4.30;2.50;;;17.70;99.90;;;;;;5065500;28;20686;-32
2022/10/05 07:32:58;;;;;;;4.07;2.10;;;17.70;99.90;;;;;;5063443;28;20223;-34
2022/10/05 07:38:30;;;;;;;6.23;2.10;;;17.70;99.90;;;;;;5066694;28;20219;-32
2022/10/05 07:41:06;;;;;;;3.43;2.17;;;17.70;99.90;;;;;;5065106;28;20241;-32
2022/10/05 07:43:40;;;;;;;4.40;2.03;;;17.80;99.90;;;;;;5059970;28;20248;-32
2022/10/05 07:46:55;;;;;;;5.60;2.07;;;17.80;99.90;;;;;;5060908;28;20294;-31
2022/10/05 07:49:35;;;;;;;5.57;2.40;;;17.90;99.90;;;;;;5062858;28;20298;-32
2022/10/05 07:52:11;;;;;;;5.13;2.17;;;17.90;99.90;;;;;;5057835;28;20200;-32
2022/10/05 07:55:02;;;;;;;4.20;2.17;;;17.90;99.90;;;;;;5068936;28;20203;-32
2022/10/05 07:57:43;;;;;;;5.07;1.87;;;18.00;99.90;;;;;;5058844;28;20237;-32
2022/10/05 08:00:22;;;;;;;2.00;1.80;;;18.00;99.90;;;;;;5065341;28;20255;-32
2022/10/05 08:03:04;;;;;;;5.77;2.23;;;18.00;99.90;;;;;;5059823;28;20191;-32
2022/10/05 08:05:34;;;;;;;7.10;2.47;;;18.10;99.90;;;;;;5056627;28;20224;-32
2022/10/05 08:08:31;;;;;;;7.40;2.27;;;18.10;99.90;;;;;;5063286;28;20221;-32
2022/10/05 08:11:17;;;;;;;6.30;2.33;;;18.20;99.90;;;;;;5059511;28;21467;-32
2022/10/05 08:14:01;;;;;;;7.53;2.43;;;18.20;99.90;;;;;;5060659;28;20296;-32
2022/10/05 08:16:34;;;;;;;5.97;2.00;;;18.20;99.90;;;;;;5062109;28;20211;-32
2022/10/05 08:19:07;;;;;;;4.47;2.20;;;18.30;99.90;;;;;;5067595;28;20235;-32
2022/10/05 08:21:41;;;;;;;3.97;1.73;;;18.30;99.90;;;;;;5049837;28;20264;-32
2022/10/05 08:24:36;;;;;;;8.37;1.90;;;18.40;99.90;;;;;;5063011;28;20325;-32
2022/10/05 08:27:09;;;;;;;2.63;1.63;;;18.40;99.90;;;;;;5065002;28;20627;-32
2022/10/05 08:29:51;;;;;;;3.53;2.13;;;18.50;99.90;;;;;;5064360;28;20202;-32
2022/10/05 08:32:22;;;;;;;2.70;1.67;;;18.50;99.90;;;;;;5064443;28;20253;-32
2022/10/05 08:35:01;;;;;;;4.10;2.23;;;18.60;99.90;;;;;;5066251;28;20273;-32
2022/10/05 08:37:34;;;;;;;8.13;2.83;;;18.60;99.90;;;;;;5062925;28;20195;-31
2022/10/05 08:40:23;;;;;;;8.33;2.37;;;18.70;99.90;;;;;;5063489;28;20223;-32
2022/10/05 08:43:20;;;;;;;5.07;1.83;;;18.80;99.90;;;;;;5061952;28;20227;-32
2022/10/05 08:46:12;;;;;;;3.77;1.90;;;18.80;99.90;;;;;;5060751;28;20304;-31
2022/10/05 08:48:56;;;;;;;2.90;1.83;;;18.80;99.90;;;;;;5064614;28;20199;-32
2022/10/05 08:51:28;;;;;;;3.40;2.10;;;18.90;99.90;;;;;;5080816;28;20211;-31
2022/10/05 08:54:01;;;;;;;6.90;2.10;;;19.00;99.90;;;;;;5064766;28;20203;-32
2022/10/05 08:56:34;;;;;;;3.80;1.97;;;19.00;99.90;;;;;;5049658;28;20206;-31
2022/10/05 08:59:23;;;;;;;5.47;1.70;;;19.10;99.90;;;;;;5055928;28;20270;-31
2022/10/05 09:02:39;;;;;;;4.33;1.83;;;19.10;99.90;;;;;;5064094;28;20226;-31
2022/10/05 09:05:27;;;;;;;3.43;1.60;;;19.20;99.90;;;;;;5079104;28;20234;-31
2022/10/05 09:07:57;;;;;;;8.60;1.90;;;19.20;99.90;;;;;;5052877;28;20219;-31
2022/10/05 09:10:49;;;;;;;4.77;2.00;;;19.20;99.90;;;;;;5063252;28;20666;-31
2022/10/05 09:13:42;;;;;;;3.37;2.07;;;19.30;99.90;;;;;;5064734;28;20222;-32
2022/10/05 09:16:15;;;;;;;8.57;1.90;;;19.30;99.90;;;;;;5065070;28;20225;-31
2022/10/05 09:19:13;;;;;;;7.07;2.27;;;19.30;99.90;;;;;;5066942;28;20784;-33
2022/10/05 09:21:42;;;;;;;3.47;1.70;;;19.30;99.90;;;;;;5059149;28;20232;-32
2022/10/05 09:24:24;;;;;;;4.57;1.90;;;19.40;99.90;;;;;;5063531;28;20199;-32
2022/10/05 09:27:06;;;;;;;4.77;1.40;;;19.40;99.90;;;;;;5068247;28;20187;-32
2022/10/05 09:29:51;;;;;;;2.93;1.83;;;19.40;99.90;;;;;;5063601;28;20196;-31
2022/10/05 09:32:56;;;;;;;4.80;1.80;;;19.50;99.90;;;;;;5066810;28;20207;-32
2022/10/05 09:35:42;;;;;;;3.77;1.90;;;19.50;99.90;;;;;;5069174;28;20198;-32
2022/10/05 09:38:16;;;;;;;1.97;1.50;;;19.60;99.90;;;;;;5068975;28;20211;-32
2022/10/05 09:41:22;;;;;;;4.05;1.73;;;19.70;99.90;;;;;;5066333;28;20238;-32
2022/10/05 09:44:05;;;;;;;1.77;1.50;;;19.70;99.90;;;;;;5047939;28;20903;-32
2022/10/05 09:46:54;;;;;;;7.23;1.80;;;19.70;99.90;;;;;;5049698;28;20258;-33
2022/10/05 09:49:42;;;;;;;5.70;1.70;;;19.80;99.90;;;;;;5062797;28;20249;-33
2022/10/05 09:52:56;;;;;;;8.20;2.10;;;19.90;99.90;;;;;;5068542;28;20635;-33
2022/10/05 09:55:32;;;;;;;6.63;2.27;;;19.90;99.90;;;;;;5063033;28;20302;-33
2022/10/05 09:58:11;;;;;;;3.77;1.80;;;20.00;99.90;;;;;;5066059;28;20551;-33
2022/10/05 10:01:05;;;;;;;3.40;1.90;;;20.00;99.90;;;;;;5064525;28;20222;-32
2022/10/05 10:04:24;;;;;;;5.63;1.90;;;20.10;99.90;;;;;;5055658;28;20266;-32
2022/10/05 10:07:09;;;;;;;3.40;1.90;;;20.20;99.90;;;;;;5048965;28;20204;-33
2022/10/05 10:09:48;;;;;;;3.13;1.83;;;20.20;99.90;;;;;;5064131;28;20614;-33
2022/10/05 10:12:34;;;;;;;3.37;1.60;;;20.30;99.90;;;;;;5067795;28;20218;-33
2022/10/05 10:15:04;;;;;;;3.67;1.63;;;20.30;99.90;;;;;;5067025;28;20204;-32
2022/10/05 10:17:47;;;;;;;3.13;1.67;;;20.40;99.90;;;;;;5066239;28;20266;-33
2022/10/05 10:20:37;;;;;;;6.90;1.90;;;20.50;99.90;;;;;;5065206;28;20229;-31
2022/10/05 10:23:22;;;;;;;16.15;2.00;;;20.40;99.90;;;;;;5059380;28;20571;-33
2022/10/05 10:26:41;;;;;;;8.75;1.90;;;20.50;99.90;;;;;;5062032;28;20200;-31
2022/10/05 10:29:50;;;;;;;6.38;1.48;;;20.50;99.90;;;;;;5071762;28;20230;-32
2022/10/05 10:32:35;;;;;;;2.20;1.43;;;20.50;99.90;;;;;;5063295;28;20636;-32
2022/10/05 10:35:24;;;;;;;1.98;1.55;;;20.40;99.90;;;;;;5065717;28;20249;-32
2022/10/05 10:37:51;;;;;;;6.95;1.98;;;20.40;99.90;;;;;;5063102;28;20215;-32
2022/10/05 10:40:57;;;;;;;6.57;1.77;;;20.50;99.90;;;;;;5051023;28;20220;-33
2022/10/05 10:43:34;;;;;;;8.67;2.13;;;20.60;99.90;;;;;;5067865;28;20282;-32
2022/10/05 10:46:44;;;;;;;6.30;2.35;;;20.60;99.90;;;;;;5065901;28;20223;-32
2022/10/05 10:49:32;;;;;;;5.22;1.63;;;20.60;99.90;;;;;;5067152;28;20211;-32
2022/10/05 10:52:30;;;;;;;3.38;1.17;;;20.60;99.90;;;;;;5061705;28;20214;-32
2022/10/05 10:55:34;;;;;;;6.07;1.57;;;20.70;99.90;;;;;;5062927;28;20231;-32
2022/10/05 10:58:07;;;;;;;11.45;2.38;;;20.70;99.90;;;;;;5066700;28;20203;-33
2022/10/05 11:00:56;;;;;;;3.53;1.50;;;20.80;99.90;;;;;;5064939;28;20215;-35
2022/10/05 11:03:36;;;;;;;6.10;2.00;;;20.70;99.90;;;;;;5064115;28;20204;-32
2022/10/05 11:06:27;;;;;;;6.60;2.00;;;20.70;99.90;;;;;;5056171;28;21055;-32
2022/10/05 11:09:08;;;;;;;5.13;1.50;;;20.70;99.90;;;;;;5064424;28;20231;-32
2022/10/05 11:12:06;;;;;;;6.50;1.60;;;20.80;99.90;;;;;;5059701;28;20733;-32
2022/10/05 11:14:56;;;;;;;1.87;1.13;;;20.80;99.90;;;;;;5065507;28;20285;-33
2022/10/05 11:17:41;;;;;;;2.43;1.20;;;20.80;99.90;;;;;;5064561;28;20221;-32
2022/10/05 11:20:17;;;;;;;3.00;1.50;;;20.80;99.90;;;;;;5056085;28;20297;-33
2022/10/05 11:23:08;;;;;;;4.28;1.73;;;20.80;99.90;;;;;;5059254;28;20216;-32
2022/10/05 11:25:43;;;;;;;8.30;1.90;;;20.80;99.90;;;;;;5057973;28;20611;-32
2022/10/05 11:28:57;;;;;;;2.70;1.50;;;20.90;99.90;;;;;;5047418;28;20556;-32
2022/10/05 11:31:29;;;;;;;7.73;1.57;;;20.90;99.90;;;;;;5055759;28;20673;-33
2022/10/05 11:34:22;;;;;;;3.17;1.30;;;20.90;99.90;;;;;;5063309;28;20214;-33
2022/10/05 11:36:58;;;;;;;9.50;2.10;;;20.90;99.90;;;;;;5066878;28;20623;-33
2022/10/05 11:39:35;;;;;;;5.03;1.67;;;21.00;99.90;;;;;;5065775;28;20225;-32
2022/10/05 11:42:13;;;;;;;16.53;2.80;;;21.00;99.90;;;;;;5049707;28;20224;-33
2022/10/05 11:45:28;;;;;;;3.17;1.50;;;21.00;99.90;;;;;;5062345;28;20200;-33
2022/10/05 11:48:19;;;;;;;2.77;1.37;;;21.00;99.90;;;;;;5054462;28;20268;-32
2022/10/05 11:51:19;;;;;;;9.23;2.80;;;21.00;99.90;;;;;;5060948;28;20323;-32
2022/10/05 11:54:18;;;;;;;4.40;1.53;;;21.00;99.90;;;;;;5056826;28;20198;-33
2022/10/05 11:57:04;;;;;;;10.77;2.72;;;21.00;99.90;;;;;;5051975;28;20697;-33
2022/10/05 12:00:01;;;;;;;7.63;1.50;;;20.90;99.90;;;;;;5046089;28;20204;-33
2022/10/05 12:02:55;;;;;;;3.57;1.40;;;21.00;99.90;;;;;;5054972;28;20702;-32
2022/10/05 12:05:29;;;;;;;2.20;1.40;;;21.10;99.90;;;;;;5064156;28;20688;-33
2022/10/05 12:08:02;;;;;;;5.40;1.70;;;21.20;99.90;;;;;;5066625;28;20214;-33
2022/10/05 12:11:00;;;;;;;4.10;1.20;;;21.30;99.90;;;;;;5062644;28;20198;-32
2022/10/05 12:13:30;;;;;;;3.53;1.30;;;21.30;99.90;;;;;;5046879;28;20666;-32
2022/10/05 12:16:19;;;;;;;4.57;1.30;;;21.30;99.90;;;;;;5061430;28;20199;-33
2022/10/05 12:19:16;;;;;;;1.77;1.00;;;21.40;99.90;;;;;;5061228;28;20608;-32
2022/10/05 12:22:02;;;;;;;3.13;1.20;;;21.40;99.90;;;;;;5061257;28;20697;-32
2022/10/05 12:24:35;;;;;;;3.35;1.40;;;21.50;99.90;;;;;;5062704;28;20222;-32
2022/10/05 12:27:15;;;;;;;3.13;1.23;;;21.50;99.90;;;;;;5062831;28;20204;-32
2022/10/05 12:29:51;;;;;;;2.78;1.38;;;21.50;99.90;;;;;;5054085;28;20200;-31
2022/10/05 12:32:29;;;;;;;2.80;1.23;;;21.50;99.90;;;;;;5065235;28;20223;-31
2022/10/05 12:35:15;;;;;;;2.28;1.23;;;21.60;99.90;;;;;;5058272;28;20208;-33
2022/10/05 12:38:19;;;;;;;3.72;1.35;;;21.60;99.90;;;;;;5048103;28;20187;-32
2022/10/05 12:40:54;;;;;;;8.75;1.73;;;21.70;99.90;;;;;;5052091;28;20306;-31
2022/10/05 12:43:34;;;;;;;2.28;1.20;;;21.70;99.90;;;;;;5065499;28;20203;-31
2022/10/05 12:46:14;;;;;;;2.15;1.52;;;21.80;99.90;;;;;;5056154;28;20738;-32
2022/10/05 12:49:18;;;;;;;5.28;1.70;;;21.80;99.90;;;;;;5028714;28;20227;-32
2022/10/05 12:51:55;;;;;;;4.45;1.48;;;21.80;99.90;;;;;;5060462;28;20208;-32
2022/10/05 12:54:38;;;;;;;9.88;1.58;;;21.80;99.90;;;;;;5060793;28;20205;-31
2022/10/05 12:57:11;;;;;;;1.83;1.40;;;21.80;99.90;;;;;;5058548;28;20208;-32
2022/10/05 12:59:41;;;;;;;5.95;1.55;;;21.80;99.90;;;;;;5063194;28;20203;-30
2022/10/05 13:02:22;;;;;;;3.75;1.50;;;21.80;99.90;;;;;;5066484;28;20237;-31
2022/10/05 13:05:06;;;;;;;3.65;1.33;;;21.80;99.90;;;;;;5067753;28;20206;-31
2022/10/05 13:07:58;;;;;;;1.85;1.27;;;21.80;99.90;;;;;;5068593;28;20207;-32
2022/10/05 13:10:43;;;;;;;3.22;1.50;;;21.80;99.90;;;;;;5062056;28;20230;-32
2022/10/05 13:13:20;;;;;;;4.68;1.45;;;21.90;99.90;;;;;;5067145;28;20693;-32
2022/10/05 13:15:50;;;;;;;6.40;1.50;;;21.90;99.90;;;;;;5065321;28;20199;-32
2022/10/05 13:18:38;;;;;;;5.03;1.50;;;21.90;99.90;;;;;;5058266;28;20232;-32
2022/10/05 13:21:22;;;;;;;5.00;1.50;;;21.90;99.90;;;;;;5054865;28;20716;-31
2022/10/05 13:24:25;;;;;;;5.32;1.73;;;21.90;99.90;;;;;;5066577;28;20203;-31
2022/10/05 13:27:07;;;;;;;5.63;1.80;;;21.90;99.90;;;;;;5062039;28;20669;-31
2022/10/05 13:29:45;;;;;;;4.35;1.77;;;21.80;99.90;;;;;;5066030;28;20337;-31
2022/10/05 13:32:53;;;;;;;7.30;2.63;;;21.80;99.90;;;;;;5056193;28;20200;-32
2022/10/05 13:35:41;;;;;;;3.15;1.50;;;21.70;99.90;;;;;;5061160;28;20219;-32
2022/10/05 13:38:32;;;;;;;2.17;1.55;;;21.70;99.90;;;;;;5050105;28;20656;-32
2022/10/05 13:41:44;;;;;;;3.08;1.65;;;21.60;99.90;;;;;;5066914;28;20639;-32
2022/10/05 13:44:23;;;;;;;4.03;1.80;;;21.70;99.90;;;;;;5062904;28;20424;-32
2022/10/05 13:46:58;;;;;;;5.32;1.55;;;21.60;99.90;;;;;;5067707;28;20615;-32
2022/10/05 13:49:30;;;;;;;5.53;1.48;;;21.60;99.90;;;;;;5061354;28;20286;-32
2022/10/05 13:52:23;;;;;;;8.95;1.92;;;21.50;99.90;;;;;;5065990;28;20208;-32
2022/10/05 13:55:37;;;;;;;2.37;1.60;;;21.60;99.90;;;;;;5063296;28;20301;-32
2022/10/05 13:58:38;;;;;;;6.00;1.63;;;21.40;99.90;;;;;;5025992;28;20213;-32
2022/10/05 14:01:13;;;;;;;3.90;1.40;;;21.40;99.90;;;;;;5049484;28;20314;-32
2022/10/05 14:04:01;;;;;;;8.98;2.28;;;21.30;99.90;;;;;;5050745;28;20418;-32
2022/10/05 14:06:31;;;;;;;3.70;1.42;;;21.20;99.90;;;;;;5059053;28;20211;-32
2022/10/05 14:08:58;;;;;;;5.03;1.38;;;21.10;99.90;;;;;;5065456;28;20294;-32
2022/10/05 14:11:30;;;;;;;2.30;1.13;;;21.10;99.90;;;;;;5054818;28;20200;-32
2022/10/05 14:14:12;;;;;;;6.63;1.33;;;21.00;99.90;;;;;;5066281;28;20203;-32
2022/10/05 14:16:49;;;;;;;3.33;1.10;;;21.00;99.90;;;;;;5066429;28;20215;-32